Terminal Aerodrome Forecast
Issued by NWS

Home | Current Version | Previous Version | Text Only | Print | Product List | Glossary On
Versions: 1 2 3 4 5 6 7 8 9 10 11 12 13 14 15
000
FTUS43 KGRB 041741
TAFAUW
TAF
KAUW 041741Z 0418/0518 15008KT 1SM -SN BR OVC008
      TEMPO 0418/0420 1/2SM SN OVC005
     FM042300 16008KT 2SM -SN OVC008
     FM050300 23006KT 6SM BR OVC007
     FM050800 25007KT P6SM BKN014 OVC020
     FM051300 17005KT P6SM BKN025=

USA.gov is the U.S. government's official web portal to all federal, state and local government web resources and services.